Terminal Aerodrome Forecast
Issued by NWS

Home | Current Version | Previous Version | Text Only | Print | Product List | Glossary On
Versions: 1 2 3 4 5 6 7 8 9 10 11 12 13 14 15 16 17 18 19 20 21
000
FTUS41 KALY 300500
TAFPSF
TAF
KPSF 300537Z 3006/3106 20005KT 3SM -SN BR BKN015 OVC025
      TEMPO 3006/3010 1SM -SN BKN010
     FM301000 22007G17KT 1 1/2SM -SN OVC010
     FM301400 29010G20KT 3SM -SHSN BKN015 BKN025
     FM302000 31012G22KT 6SM -SHSN BKN020 BKN030=

USA.gov is the U.S. government's official web portal to all federal, state and local government web resources and services.